sensor_id;sensor_type;location;lat;lon;timestamp;temperature;humidity
31677;DHT22;18385;51.572;6.578;2023-07-13T00:02:22;19.80;53.10
31677;DHT22;18385;51.572;6.578;2023-07-13T00:04:47;19.80;53.10
31677;DHT22;18385;51.572;6.578;2023-07-13T00:07:13;19.80;53.10
31677;DHT22;18385;51.572;6.578;2023-07-13T00:09:40;19.70;53.30
31677;DHT22;18385;51.572;6.578;2023-07-13T00:12:31;19.70;53.40
31677;DHT22;18385;51.572;6.578;2023-07-13T00:14:59;19.70;53.50
31677;DHT22;18385;51.572;6.578;2023-07-13T00:17:26;19.60;53.40
31677;DHT22;18385;51.572;6.578;2023-07-13T00:19:52;19.60;53.40
31677;DHT22;18385;51.572;6.578;2023-07-13T00:22:19;19.50;53.50
31677;DHT22;18385;51.572;6.578;2023-07-13T00:24:45;19.50;53.60
31677;DHT22;18385;51.572;6.578;2023-07-13T00:27:11;19.50;53.80
31677;DHT22;18385;51.572;6.578;2023-07-13T00:29:37;19.40;53.80
31677;DHT22;18385;51.572;6.578;2023-07-13T00:32:07;19.40;53.90
31677;DHT22;18385;51.572;6.578;2023-07-13T00:34:35;19.40;53.90
31677;DHT22;18385;51.572;6.578;2023-07-13T00:37:01;19.40;53.90
31677;DHT22;18385;51.572;6.578;2023-07-13T00:39:27;19.40;53.90
31677;DHT22;18385;51.572;6.578;2023-07-13T00:41:53;19.40;53.90
31677;DHT22;18385;51.572;6.578;2023-07-13T00:44:20;19.40;54.00
31677;DHT22;18385;51.572;6.578;2023-07-13T00:46:48;19.40;54.00
31677;DHT22;18385;51.572;6.578;2023-07-13T00:49:17;19.30;53.70
31677;DHT22;18385;51.572;6.578;2023-07-13T00:51:48;19.30;54.10
31677;DHT22;18385;51.572;6.578;2023-07-13T00:54:21;19.30;54.10
31677;DHT22;18385;51.572;6.578;2023-07-13T00:56:51;19.20;54.10
31677;DHT22;18385;51.572;6.578;2023-07-13T00:59:18;19.20;54.20
31677;DHT22;18385;51.572;6.578;2023-07-13T01:01:46;19.20;54.20
31677;DHT22;18385;51.572;6.578;2023-07-13T01:04:11;19.20;54.20
31677;DHT22;18385;51.572;6.578;2023-07-13T01:06:39;19.20;54.60
31677;DHT22;18385;51.572;6.578;2023-07-13T01:09:06;19.20;54.40
31677;DHT22;18385;51.572;6.578;2023-07-13T01:11:33;19.10;54.50
31677;DHT22;18385;51.572;6.578;2023-07-13T01:14:00;19.10;54.50
31677;DHT22;18385;51.572;6.578;2023-07-13T01:16:33;19.10;54.50
31677;DHT22;18385;51.572;6.578;2023-07-13T01:19:00;19.10;54.60
31677;DHT22;18385;51.572;6.578;2023-07-13T01:21:32;19.10;54.70
31677;DHT22;18385;51.572;6.578;2023-07-13T01:23:58;19.10;54.80
31677;DHT22;18385;51.572;6.578;2023-07-13T01:26:24;19.00;54.70
31677;DHT22;18385;51.572;6.578;2023-07-13T01:28:50;19.00;54.80
31677;DHT22;18385;51.572;6.578;2023-07-13T01:31:15;19.00;54.90
31677;DHT22;18385;51.572;6.578;2023-07-13T01:33:41;19.00;55.00
31677;DHT22;18385;51.572;6.578;2023-07-13T01:36:07;18.90;55.00
31677;DHT22;18385;51.572;6.578;2023-07-13T01:38:35;18.90;55.00
31677;DHT22;18385;51.572;6.578;2023-07-13T01:41:01;18.90;55.00
31677;DHT22;18385;51.572;6.578;2023-07-13T01:43:27;18.90;55.10
31677;DHT22;18385;51.572;6.578;2023-07-13T01:45:53;18.90;55.10
31677;DHT22;18385;51.572;6.578;2023-07-13T01:48:19;18.80;55.20
31677;DHT22;18385;51.572;6.578;2023-07-13T01:50:47;18.90;55.40
31677;DHT22;18385;51.572;6.578;2023-07-13T01:53:13;18.80;55.30
31677;DHT22;18385;51.572;6.578;2023-07-13T01:55:39;18.80;55.40
31677;DHT22;18385;51.572;6.578;2023-07-13T01:58:05;18.80;55.50
31677;DHT22;18385;51.572;6.578;2023-07-13T02:00:31;18.80;55.50
31677;DHT22;18385;51.572;6.578;2023-07-13T02:02:57;18.80;55.50
31677;DHT22;18385;51.572;6.578;2023-07-13T02:05:23;18.70;55.50
31677;DHT22;18385;51.572;6.578;2023-07-13T02:07:49;18.80;55.60
31677;DHT22;18385;51.572;6.578;2023-07-13T02:10:15;18.70;55.60
31677;DHT22;18385;51.572;6.578;2023-07-13T02:12:41;18.70;55.60
31677;DHT22;18385;51.572;6.578;2023-07-13T02:15:07;18.70;55.70
31677;DHT22;18385;51.572;6.578;2023-07-13T02:17:34;18.70;55.60
31677;DHT22;18385;51.572;6.578;2023-07-13T02:20:00;18.70;55.70
31677;DHT22;18385;51.572;6.578;2023-07-13T02:22:26;18.70;55.70
31677;DHT22;18385;51.572;6.578;2023-07-13T02:24:52;18.70;55.80
31677;DHT22;18385;51.572;6.578;2023-07-13T02:27:18;18.70;55.90
31677;DHT22;18385;51.572;6.578;2023-07-13T02:29:44;18.70;55.90
31677;DHT22;18385;51.572;6.578;2023-07-13T02:32:09;18.70;55.90
31677;DHT22;18385;51.572;6.578;2023-07-13T02:34:35;18.60;55.90
31677;DHT22;18385;51.572;6.578;2023-07-13T02:37:04;18.60;56.00
31677;DHT22;18385;51.572;6.578;2023-07-13T02:39:29;18.60;56.10
31677;DHT22;18385;51.572;6.578;2023-07-13T02:41:59;18.60;56.30
31677;DHT22;18385;51.572;6.578;2023-07-13T02:44:26;18.60;56.30
31677;DHT22;18385;51.572;6.578;2023-07-13T02:46:51;18.50;56.20
31677;DHT22;18385;51.572;6.578;2023-07-13T02:49:17;18.50;56.30
31677;DHT22;18385;51.572;6.578;2023-07-13T02:51:43;18.50;56.40
31677;DHT22;18385;51.572;6.578;2023-07-13T02:54:10;18.50;56.40
31677;DHT22;18385;51.572;6.578;2023-07-13T02:56:37;18.50;56.40
31677;DHT22;18385;51.572;6.578;2023-07-13T02:59:04;18.60;56.60
31677;DHT22;18385;51.572;6.578;2023-07-13T03:01:30;18.60;56.60
31677;DHT22;18385;51.572;6.578;2023-07-13T03:03:59;18.70;56.60
31677;DHT22;18385;51.572;6.578;2023-07-13T03:06:25;18.70;56.60
31677;DHT22;18385;51.572;6.578;2023-07-13T03:08:53;18.80;56.50
31677;DHT22;18385;51.572;6.578;2023-07-13T03:11:19;18.80;56.50
31677;DHT22;18385;51.572;6.578;2023-07-13T03:13:52;18.90;56.50
31677;DHT22;18385;51.572;6.578;2023-07-13T03:16:19;18.90;56.50
31677;DHT22;18385;51.572;6.578;2023-07-13T03:18:48;18.90;56.40
31677;DHT22;18385;51.572;6.578;2023-07-13T03:21:14;18.80;56.40
31677;DHT22;18385;51.572;6.578;2023-07-13T03:23:40;18.80;56.50
31677;DHT22;18385;51.572;6.578;2023-07-13T03:26:15;18.70;56.50
31677;DHT22;18385;51.572;6.578;2023-07-13T03:28:42;18.70;56.70
31677;DHT22;18385;51.572;6.578;2023-07-13T03:31:17;18.60;56.80
31677;DHT22;18385;51.572;6.578;2023-07-13T03:33:44;18.50;56.80
31677;DHT22;18385;51.572;6.578;2023-07-13T03:36:15;18.50;56.90
31677;DHT22;18385;51.572;6.578;2023-07-13T03:38:50;18.50;57.10
31677;DHT22;18385;51.572;6.578;2023-07-13T03:41:18;18.40;57.10
31677;DHT22;18385;51.572;6.578;2023-07-13T03:43:44;18.40;57.20
31677;DHT22;18385;51.572;6.578;2023-07-13T03:46:11;18.40;57.30
31677;DHT22;18385;51.572;6.578;2023-07-13T03:48:37;18.40;57.40
31677;DHT22;18385;51.572;6.578;2023-07-13T03:51:05;18.40;57.40
31677;DHT22;18385;51.572;6.578;2023-07-13T03:53:30;18.40;57.40
31677;DHT22;18385;51.572;6.578;2023-07-13T03:55:57;18.40;57.50
31677;DHT22;18385;51.572;6.578;2023-07-13T03:58:33;18.40;57.50
31677;DHT22;18385;51.572;6.578;2023-07-13T04:01:08;18.40;57.70
31677;DHT22;18385;51.572;6.578;2023-07-13T04:03:34;18.40;57.70
31677;DHT22;18385;51.572;6.578;2023-07-13T04:06:02;18.40;57.70
31677;DHT22;18385;51.572;6.578;2023-07-13T04:08:30;18.40;57.80
31677;DHT22;18385;51.572;6.578;2023-07-13T04:10:56;18.40;57.80
31677;DHT22;18385;51.572;6.578;2023-07-13T04:13:22;18.40;57.80
31677;DHT22;18385;51.572;6.578;2023-07-13T04:15:48;18.40;57.80
31677;DHT22;18385;51.572;6.578;2023-07-13T04:18:14;18.40;57.90
31677;DHT22;18385;51.572;6.578;2023-07-13T04:20:40;18.40;57.90
31677;DHT22;18385;51.572;6.578;2023-07-13T04:23:06;18.50;57.90
31677;DHT22;18385;51.572;6.578;2023-07-13T04:25:31;18.40;58.60
31677;DHT22;18385;51.572;6.578;2023-07-13T04:27:57;18.50;58.10
31677;DHT22;18385;51.572;6.578;2023-07-13T04:30:23;18.60;58.10
31677;DHT22;18385;51.572;6.578;2023-07-13T04:32:51;18.60;58.00
31677;DHT22;18385;51.572;6.578;2023-07-13T04:35:19;18.60;58.00
31677;DHT22;18385;51.572;6.578;2023-07-13T04:37:47;18.60;58.00
31677;DHT22;18385;51.572;6.578;2023-07-13T04:40:18;18.60;58.00
31677;DHT22;18385;51.572;6.578;2023-07-13T04:42:45;18.60;58.10
31677;DHT22;18385;51.572;6.578;2023-07-13T04:45:12;18.60;58.20
31677;DHT22;18385;51.572;6.578;2023-07-13T04:47:38;18.60;58.20
31677;DHT22;18385;51.572;6.578;2023-07-13T04:50:04;18.60;58.30
31677;DHT22;18385;51.572;6.578;2023-07-13T04:52:30;18.70;58.20
31677;DHT22;18385;51.572;6.578;2023-07-13T04:54:56;18.60;58.20
31677;DHT22;18385;51.572;6.578;2023-07-13T04:57:21;18.70;58.30
31677;DHT22;18385;51.572;6.578;2023-07-13T04:59:47;18.80;58.40
31677;DHT22;18385;51.572;6.578;2023-07-13T05:02:13;18.70;58.40
31677;DHT22;18385;51.572;6.578;2023-07-13T05:04:38;18.80;58.40
31677;DHT22;18385;51.572;6.578;2023-07-13T05:07:05;18.80;58.40
31677;DHT22;18385;51.572;6.578;2023-07-13T05:09:31;18.90;58.50
31677;DHT22;18385;51.572;6.578;2023-07-13T05:11:57;18.90;58.40
31677;DHT22;18385;51.572;6.578;2023-07-13T05:14:23;19.00;58.40
31677;DHT22;18385;51.572;6.578;2023-07-13T05:16:48;19.00;58.40
31677;DHT22;18385;51.572;6.578;2023-07-13T05:19:14;19.10;58.40
31677;DHT22;18385;51.572;6.578;2023-07-13T05:21:39;19.10;58.40
31677;DHT22;18385;51.572;6.578;2023-07-13T05:24:06;19.10;58.40
31677;DHT22;18385;51.572;6.578;2023-07-13T05:26:32;19.20;58.50
31677;DHT22;18385;51.572;6.578;2023-07-13T05:28:58;19.30;58.50
31677;DHT22;18385;51.572;6.578;2023-07-13T05:31:23;19.50;58.50
31677;DHT22;18385;51.572;6.578;2023-07-13T05:33:49;19.70;58.50
31677;DHT22;18385;51.572;6.578;2023-07-13T05:36:15;19.90;58.30
31677;DHT22;18385;51.572;6.578;2023-07-13T05:38:41;20.00;58.10
31677;DHT22;18385;51.572;6.578;2023-07-13T05:41:06;20.20;58.00
31677;DHT22;18385;51.572;6.578;2023-07-13T05:43:33;20.30;57.80
31677;DHT22;18385;51.572;6.578;2023-07-13T05:45:58;20.40;57.70
31677;DHT22;18385;51.572;6.578;2023-07-13T05:48:24;20.40;57.50
31677;DHT22;18385;51.572;6.578;2023-07-13T05:50:50;20.50;57.60
31677;DHT22;18385;51.572;6.578;2023-07-13T05:53:16;20.50;57.40
31677;DHT22;18385;51.572;6.578;2023-07-13T05:55:46;20.60;57.50
31677;DHT22;18385;51.572;6.578;2023-07-13T05:58:19;20.70;57.50
31677;DHT22;18385;51.572;6.578;2023-07-13T06:00:45;20.80;57.60
31677;DHT22;18385;51.572;6.578;2023-07-13T06:03:11;20.80;57.30
31677;DHT22;18385;51.572;6.578;2023-07-13T06:05:38;20.90;57.40
31677;DHT22;18385;51.572;6.578;2023-07-13T06:08:05;21.00;57.30
31677;DHT22;18385;51.572;6.578;2023-07-13T06:10:35;21.10;57.20
31677;DHT22;18385;51.572;6.578;2023-07-13T06:13:01;21.10;57.20
31677;DHT22;18385;51.572;6.578;2023-07-13T06:15:26;21.10;57.70
31677;DHT22;18385;51.572;6.578;2023-07-13T06:17:52;21.20;57.00
31677;DHT22;18385;51.572;6.578;2023-07-13T06:20:17;21.10;57.00
31677;DHT22;18385;51.572;6.578;2023-07-13T06:22:43;21.10;57.10
31677;DHT22;18385;51.572;6.578;2023-07-13T06:25:09;21.10;57.20
31677;DHT22;18385;51.572;6.578;2023-07-13T06:27:34;21.10;57.30
31677;DHT22;18385;51.572;6.578;2023-07-13T06:30:03;21.10;57.10
31677;DHT22;18385;51.572;6.578;2023-07-13T06:32:29;21.10;57.20
31677;DHT22;18385;51.572;6.578;2023-07-13T06:34:54;21.10;57.40
31677;DHT22;18385;51.572;6.578;2023-07-13T06:37:21;21.20;57.40
31677;DHT22;18385;51.572;6.578;2023-07-13T06:39:46;21.40;57.30
31677;DHT22;18385;51.572;6.578;2023-07-13T06:42:12;21.40;57.30
31677;DHT22;18385;51.572;6.578;2023-07-13T06:44:38;21.50;57.20
31677;DHT22;18385;51.572;6.578;2023-07-13T06:47:03;21.50;56.90
31677;DHT22;18385;51.572;6.578;2023-07-13T06:49:29;21.50;56.90
31677;DHT22;18385;51.572;6.578;2023-07-13T06:51:55;21.50;57.10
31677;DHT22;18385;51.572;6.578;2023-07-13T06:54:20;21.40;57.10
31677;DHT22;18385;51.572;6.578;2023-07-13T06:56:46;21.40;57.00
31677;DHT22;18385;51.572;6.578;2023-07-13T06:59:11;21.40;57.30
31677;DHT22;18385;51.572;6.578;2023-07-13T07:01:37;21.50;57.40
31677;DHT22;18385;51.572;6.578;2023-07-13T07:04:03;21.60;57.20
31677;DHT22;18385;51.572;6.578;2023-07-13T07:06:29;21.60;57.10
31677;DHT22;18385;51.572;6.578;2023-07-13T07:08:55;21.70;57.10
31677;DHT22;18385;51.572;6.578;2023-07-13T07:11:25;21.70;56.90
31677;DHT22;18385;51.572;6.578;2023-07-13T07:13:52;21.70;57.00
31677;DHT22;18385;51.572;6.578;2023-07-13T07:16:19;21.70;57.00
31677;DHT22;18385;51.572;6.578;2023-07-13T07:18:46;21.80;56.90
31677;DHT22;18385;51.572;6.578;2023-07-13T07:21:12;21.80;56.90
31677;DHT22;18385;51.572;6.578;2023-07-13T07:23:38;21.90;57.10
31677;DHT22;18385;51.572;6.578;2023-07-13T07:26:04;22.00;56.80
31677;DHT22;18385;51.572;6.578;2023-07-13T07:28:30;22.10;56.80
31677;DHT22;18385;51.572;6.578;2023-07-13T07:30:57;22.20;56.70
31677;DHT22;18385;51.572;6.578;2023-07-13T07:33:24;22.40;56.70
31677;DHT22;18385;51.572;6.578;2023-07-13T07:35:50;22.50;56.40
31677;DHT22;18385;51.572;6.578;2023-07-13T07:38:16;22.60;56.30
31677;DHT22;18385;51.572;6.578;2023-07-13T07:40:42;22.80;56.10
31677;DHT22;18385;51.572;6.578;2023-07-13T07:43:10;22.80;56.00
31677;DHT22;18385;51.572;6.578;2023-07-13T07:45:36;22.90;56.00
31677;DHT22;18385;51.572;6.578;2023-07-13T07:48:04;23.00;55.90
31677;DHT22;18385;51.572;6.578;2023-07-13T07:50:31;23.10;55.70
31677;DHT22;18385;51.572;6.578;2023-07-13T07:52:56;23.10;55.70
31677;DHT22;18385;51.572;6.578;2023-07-13T07:55:23;23.20;55.50
31677;DHT22;18385;51.572;6.578;2023-07-13T07:57:49;23.10;55.30
31677;DHT22;18385;51.572;6.578;2023-07-13T08:00:16;23.00;55.40
31677;DHT22;18385;51.572;6.578;2023-07-13T08:02:42;23.00;55.40
31677;DHT22;18385;51.572;6.578;2023-07-13T08:05:09;23.00;55.50
31677;DHT22;18385;51.572;6.578;2023-07-13T08:07:35;23.00;55.60
31677;DHT22;18385;51.572;6.578;2023-07-13T08:10:00;23.10;55.50
31677;DHT22;18385;51.572;6.578;2023-07-13T08:12:27;23.20;55.40
31677;DHT22;18385;51.572;6.578;2023-07-13T08:14:52;23.20;55.30
31677;DHT22;18385;51.572;6.578;2023-07-13T08:17:22;23.30;55.40
31677;DHT22;18385;51.572;6.578;2023-07-13T08:19:47;23.30;55.00
31677;DHT22;18385;51.572;6.578;2023-07-13T08:22:13;23.50;55.20
31677;DHT22;18385;51.572;6.578;2023-07-13T08:24:39;23.60;54.90
31677;DHT22;18385;51.572;6.578;2023-07-13T08:27:04;23.60;54.70
31677;DHT22;18385;51.572;6.578;2023-07-13T08:29:30;23.60;54.80
31677;DHT22;18385;51.572;6.578;2023-07-13T08:31:58;23.70;54.70
31677;DHT22;18385;51.572;6.578;2023-07-13T08:34:24;23.80;54.50
31677;DHT22;18385;51.572;6.578;2023-07-13T08:36:50;23.90;54.30
31677;DHT22;18385;51.572;6.578;2023-07-13T08:39:15;24.00;54.30
31677;DHT22;18385;51.572;6.578;2023-07-13T08:41:41;24.00;54.00
31677;DHT22;18385;51.572;6.578;2023-07-13T08:44:18;24.10;54.10
31677;DHT22;18385;51.572;6.578;2023-07-13T08:46:45;24.20;54.20
31677;DHT22;18385;51.572;6.578;2023-07-13T08:49:15;24.50;54.10
31677;DHT22;18385;51.572;6.578;2023-07-13T08:51:48;24.70;53.50
31677;DHT22;18385;51.572;6.578;2023-07-13T08:56:49;24.60;52.70
31677;DHT22;18385;51.572;6.578;2023-07-13T08:59:20;24.70;53.30
31677;DHT22;18385;51.572;6.578;2023-07-13T09:04:23;24.80;52.70
31677;DHT22;18385;51.572;6.578;2023-07-13T09:07:05;24.80;52.90
31677;DHT22;18385;51.572;6.578;2023-07-13T09:09:58;24.70;52.50
31677;DHT22;18385;51.572;6.578;2023-07-13T09:12:49;24.80;52.40
31677;DHT22;18385;51.572;6.578;2023-07-13T09:15:34;24.70;52.30
31677;DHT22;18385;51.572;6.578;2023-07-13T09:18:29;24.60;52.50
31677;DHT22;18385;51.572;6.578;2023-07-13T09:21:05;24.70;52.30
31677;DHT22;18385;51.572;6.578;2023-07-13T09:23:35;24.70;52.30
31677;DHT22;18385;51.572;6.578;2023-07-13T09:26:11;24.60;52.30
31677;DHT22;18385;51.572;6.578;2023-07-13T09:28:46;24.60;52.60
31677;DHT22;18385;51.572;6.578;2023-07-13T09:31:22;24.70;52.50
31677;DHT22;18385;51.572;6.578;2023-07-13T09:33:49;24.90;52.00
31677;DHT22;18385;51.572;6.578;2023-07-13T09:38:44;25.10;52.10
31677;DHT22;18385;51.572;6.578;2023-07-13T09:41:37;25.30;51.90
31677;DHT22;18385;51.572;6.578;2023-07-13T09:44:17;25.40;51.60
31677;DHT22;18385;51.572;6.578;2023-07-13T09:46:52;25.70;51.30
31677;DHT22;18385;51.572;6.578;2023-07-13T09:49:18;25.80;50.80
31677;DHT22;18385;51.572;6.578;2023-07-13T09:51:44;25.70;50.50
31677;DHT22;18385;51.572;6.578;2023-07-13T09:54:20;25.60;50.60
31677;DHT22;18385;51.572;6.578;2023-07-13T09:56:46;25.40;50.80
31677;DHT22;18385;51.572;6.578;2023-07-13T09:59:19;25.50;50.80
31677;DHT22;18385;51.572;6.578;2023-07-13T10:01:46;25.60;50.80
31677;DHT22;18385;51.572;6.578;2023-07-13T10:04:17;25.80;50.80
31677;DHT22;18385;51.572;6.578;2023-07-13T10:06:44;25.70;49.80
31677;DHT22;18385;51.572;6.578;2023-07-13T10:09:14;25.50;49.80
31677;DHT22;18385;51.572;6.578;2023-07-13T10:11:40;25.40;50.30
31677;DHT22;18385;51.572;6.578;2023-07-13T10:16:36;25.50;49.90
31677;DHT22;18385;51.572;6.578;2023-07-13T10:19:06;25.30;49.90
31677;DHT22;18385;51.572;6.578;2023-07-13T10:21:50;25.30;49.90
31677;DHT22;18385;51.572;6.578;2023-07-13T10:24:26;25.20;49.90
31677;DHT22;18385;51.572;6.578;2023-07-13T10:29:34;25.30;50.10
31677;DHT22;18385;51.572;6.578;2023-07-13T10:32:01;25.60;50.10
31677;DHT22;18385;51.572;6.578;2023-07-13T10:34:27;25.80;49.50
31677;DHT22;18385;51.572;6.578;2023-07-13T10:36:53;25.90;48.90
31677;DHT22;18385;51.572;6.578;2023-07-13T10:39:22;25.70;48.70
31677;DHT22;18385;51.572;6.578;2023-07-13T10:42:05;25.90;49.50
31677;DHT22;18385;51.572;6.578;2023-07-13T10:44:33;26.30;49.20
31677;DHT22;18385;51.572;6.578;2023-07-13T10:47:04;26.40;48.20
31677;DHT22;18385;51.572;6.578;2023-07-13T10:49:32;26.30;47.70
31677;DHT22;18385;51.572;6.578;2023-07-13T10:51:58;26.30;48.00
31677;DHT22;18385;51.572;6.578;2023-07-13T10:54:34;26.30;47.80
31677;DHT22;18385;51.572;6.578;2023-07-13T10:57:21;26.20;47.70
31677;DHT22;18385;51.572;6.578;2023-07-13T11:02:29;26.40;48.10
31677;DHT22;18385;51.572;6.578;2023-07-13T11:04:56;26.60;47.80
31677;DHT22;18385;51.572;6.578;2023-07-13T11:07:55;26.90;47.60
31677;DHT22;18385;51.572;6.578;2023-07-13T11:10:46;27.10;47.50
31677;DHT22;18385;51.572;6.578;2023-07-13T11:13:55;27.30;47.10
31677;DHT22;18385;51.572;6.578;2023-07-13T11:18:54;27.60;45.90
31677;DHT22;18385;51.572;6.578;2023-07-13T11:21:34;27.30;45.40
31677;DHT22;18385;51.572;6.578;2023-07-13T11:26:52;26.70;45.70
31677;DHT22;18385;51.572;6.578;2023-07-13T11:31:54;26.50;46.30
31677;DHT22;18385;51.572;6.578;2023-07-13T11:34:40;26.50;45.80
31677;DHT22;18385;51.572;6.578;2023-07-13T11:37:12;26.60;45.90
31677;DHT22;18385;51.572;6.578;2023-07-13T11:39:43;26.70;45.60
31677;DHT22;18385;51.572;6.578;2023-07-13T11:42:13;26.90;45.30
31677;DHT22;18385;51.572;6.578;2023-07-13T11:44:49;27.10;45.00
31677;DHT22;18385;51.572;6.578;2023-07-13T11:47:20;27.00;44.60
31677;DHT22;18385;51.572;6.578;2023-07-13T11:49:54;27.10;44.70
31677;DHT22;18385;51.572;6.578;2023-07-13T11:52:35;27.10;44.30
31677;DHT22;18385;51.572;6.578;2023-07-13T11:55:08;27.10;44.30
31677;DHT22;18385;51.572;6.578;2023-07-13T11:57:51;27.10;44.20
31677;DHT22;18385;51.572;6.578;2023-07-13T12:00:22;27.20;44.10
31677;DHT22;18385;51.572;6.578;2023-07-13T12:02:51;27.20;43.70
31677;DHT22;18385;51.572;6.578;2023-07-13T12:05:18;27.30;44.20
31677;DHT22;18385;51.572;6.578;2023-07-13T12:07:46;27.60;43.80
31677;DHT22;18385;51.572;6.578;2023-07-13T12:10:24;28.00;43.70
31677;DHT22;18385;51.572;6.578;2023-07-13T12:13:00;28.10;42.50
31677;DHT22;18385;51.572;6.578;2023-07-13T12:15:39;28.10;42.10
31677;DHT22;18385;51.572;6.578;2023-07-13T12:18:19;27.80;41.90
31677;DHT22;18385;51.572;6.578;2023-07-13T12:20:47;27.50;42.10
31677;DHT22;18385;51.572;6.578;2023-07-13T12:23:31;27.40;42.60
31677;DHT22;18385;51.572;6.578;2023-07-13T12:25:59;27.40;42.40
31677;DHT22;18385;51.572;6.578;2023-07-13T12:28:36;27.20;42.20
31677;DHT22;18385;51.572;6.578;2023-07-13T12:31:05;26.80;42.20
31677;DHT22;18385;51.572;6.578;2023-07-13T12:33:33;26.20;42.30
31677;DHT22;18385;51.572;6.578;2023-07-13T12:36:04;25.10;41.90
31677;DHT22;18385;51.572;6.578;2023-07-13T12:38:32;23.20;43.70
31677;DHT22;18385;51.572;6.578;2023-07-13T12:40:58;21.70;46.50
31677;DHT22;18385;51.572;6.578;2023-07-13T12:43:25;20.90;48.70
31677;DHT22;18385;51.572;6.578;2023-07-13T12:46:16;20.40;50.10
31677;DHT22;18385;51.572;6.578;2023-07-13T12:48:43;20.30;51.40
31677;DHT22;18385;51.572;6.578;2023-07-13T12:51:12;20.30;51.40
31677;DHT22;18385;51.572;6.578;2023-07-13T12:53:50;20.70;52.00
31677;DHT22;18385;51.572;6.578;2023-07-13T12:56:22;21.10;51.90
31677;DHT22;18385;51.572;6.578;2023-07-13T12:58:49;21.70;51.80
31677;DHT22;18385;51.572;6.578;2023-07-13T13:01:21;22.20;51.30
31677;DHT22;18385;51.572;6.578;2023-07-13T13:03:49;22.60;51.00
31677;DHT22;18385;51.572;6.578;2023-07-13T13:08:47;23.40;50.70
31677;DHT22;18385;51.572;6.578;2023-07-13T13:11:18;23.80;50.70
31677;DHT22;18385;51.572;6.578;2023-07-13T13:13:44;24.20;50.40
31677;DHT22;18385;51.572;6.578;2023-07-13T13:16:30;24.50;49.80
31677;DHT22;18385;51.572;6.578;2023-07-13T13:19:29;24.60;49.60
31677;DHT22;18385;51.572;6.578;2023-07-13T13:21:55;24.70;49.70
31677;DHT22;18385;51.572;6.578;2023-07-13T13:24:24;24.60;49.70
31677;DHT22;18385;51.572;6.578;2023-07-13T13:26:51;24.60;50.00
31677;DHT22;18385;51.572;6.578;2023-07-13T13:29:22;24.50;50.00
31677;DHT22;18385;51.572;6.578;2023-07-13T13:31:52;24.20;50.00
31677;DHT22;18385;51.572;6.578;2023-07-13T13:34:18;24.00;50.50
31677;DHT22;18385;51.572;6.578;2023-07-13T13:36:46;23.70;50.60
31677;DHT22;18385;51.572;6.578;2023-07-13T13:39:23;23.10;50.70
31677;DHT22;18385;51.572;6.578;2023-07-13T13:41:50;22.20;52.40
31677;DHT22;18385;51.572;6.578;2023-07-13T13:44:17;21.60;53.70
31677;DHT22;18385;51.572;6.578;2023-07-13T13:46:46;21.20;54.80
31677;DHT22;18385;51.572;6.578;2023-07-13T13:49:23;21.00;55.60
31677;DHT22;18385;51.572;6.578;2023-07-13T13:51:50;20.90;55.80
31677;DHT22;18385;51.572;6.578;2023-07-13T13:54:16;20.80;56.00
31677;DHT22;18385;51.572;6.578;2023-07-13T13:56:49;20.70;56.30
31677;DHT22;18385;51.572;6.578;2023-07-13T13:59:15;20.70;56.60
31677;DHT22;18385;51.572;6.578;2023-07-13T14:01:43;20.50;56.80
31677;DHT22;18385;51.572;6.578;2023-07-13T14:04:16;20.60;57.60
31677;DHT22;18385;51.572;6.578;2023-07-13T14:06:43;21.00;58.30
31677;DHT22;18385;51.572;6.578;2023-07-13T14:09:11;21.70;58.20
31677;DHT22;18385;51.572;6.578;2023-07-13T14:11:37;22.90;58.70
31677;DHT22;18385;51.572;6.578;2023-07-13T14:14:04;24.70;57.20
31677;DHT22;18385;51.572;6.578;2023-07-13T14:16:31;25.50;54.20
31677;DHT22;18385;51.572;6.578;2023-07-13T14:18:59;26.50;54.50
31677;DHT22;18385;51.572;6.578;2023-07-13T14:21:27;28.10;53.20
31677;DHT22;18385;51.572;6.578;2023-07-13T14:23:53;29.20;50.70
31677;DHT22;18385;51.572;6.578;2023-07-13T14:26:22;29.40;48.80
31677;DHT22;18385;51.572;6.578;2023-07-13T14:28:50;28.90;47.40
31677;DHT22;18385;51.572;6.578;2023-07-13T14:31:17;28.10;47.80
31677;DHT22;18385;51.572;6.578;2023-07-13T14:33:43;27.60;48.40
31677;DHT22;18385;51.572;6.578;2023-07-13T14:36:33;27.20;48.70
31677;DHT22;18385;51.572;6.578;2023-07-13T14:39:01;26.80;48.90
31677;DHT22;18385;51.572;6.578;2023-07-13T14:41:37;26.50;49.30
31677;DHT22;18385;51.572;6.578;2023-07-13T14:44:15;26.10;49.90
31677;DHT22;18385;51.572;6.578;2023-07-13T14:46:43;25.80;50.30
31677;DHT22;18385;51.572;6.578;2023-07-13T14:51:48;25.10;50.80
31677;DHT22;18385;51.572;6.578;2023-07-13T14:54:13;24.50;50.60
31677;DHT22;18385;51.572;6.578;2023-07-13T14:56:40;23.80;51.40
31677;DHT22;18385;51.572;6.578;2023-07-13T14:59:05;23.30;52.10
31677;DHT22;18385;51.572;6.578;2023-07-13T15:01:36;22.90;53.20
31677;DHT22;18385;51.572;6.578;2023-07-13T15:04:02;22.80;53.80
31677;DHT22;18385;51.572;6.578;2023-07-13T15:06:28;22.90;54.20
31677;DHT22;18385;51.572;6.578;2023-07-13T15:08:54;23.60;54.90
31677;DHT22;18385;51.572;6.578;2023-07-13T15:11:21;24.20;53.40
31677;DHT22;18385;51.572;6.578;2023-07-13T15:13:47;24.40;53.00
31677;DHT22;18385;51.572;6.578;2023-07-13T15:16:21;24.80;52.50
31677;DHT22;18385;51.572;6.578;2023-07-13T15:18:48;24.90;51.70
31677;DHT22;18385;51.572;6.578;2023-07-13T15:21:20;24.80;52.00
31677;DHT22;18385;51.572;6.578;2023-07-13T15:23:46;24.80;51.60
31677;DHT22;18385;51.572;6.578;2023-07-13T15:26:14;24.60;51.90
31677;DHT22;18385;51.572;6.578;2023-07-13T15:28:42;24.60;52.00
31677;DHT22;18385;51.572;6.578;2023-07-13T15:31:24;24.50;52.10
31677;DHT22;18385;51.572;6.578;2023-07-13T15:33:51;24.30;52.40
31677;DHT22;18385;51.572;6.578;2023-07-13T15:36:18;24.30;52.80
31677;DHT22;18385;51.572;6.578;2023-07-13T15:38:46;24.30;52.50
31677;DHT22;18385;51.572;6.578;2023-07-13T15:41:28;24.30;52.60
31677;DHT22;18385;51.572;6.578;2023-07-13T15:43:57;24.20;52.60
31677;DHT22;18385;51.572;6.578;2023-07-13T15:46:27;24.30;52.60
31677;DHT22;18385;51.572;6.578;2023-07-13T15:48:54;24.30;52.50
31677;DHT22;18385;51.572;6.578;2023-07-13T15:51:30;24.30;52.80
31677;DHT22;18385;51.572;6.578;2023-07-13T15:54:02;24.40;52.50
31677;DHT22;18385;51.572;6.578;2023-07-13T15:56:34;24.40;52.70
31677;DHT22;18385;51.572;6.578;2023-07-13T15:59:00;24.40;52.40
31677;DHT22;18385;51.572;6.578;2023-07-13T16:01:26;24.50;52.40
31677;DHT22;18385;51.572;6.578;2023-07-13T16:03:55;24.50;52.40
31677;DHT22;18385;51.572;6.578;2023-07-13T16:06:31;24.60;51.90
31677;DHT22;18385;51.572;6.578;2023-07-13T16:08:58;24.60;51.90
31677;DHT22;18385;51.572;6.578;2023-07-13T16:11:28;24.60;51.80